Time;durP1;ratioP1;P1;durP2;ratioP2;P2;SDS_P1;SDS_P2;PMS_P1;PMS_P2;Temp;Humidity;BMP_temperature;BMP_pressure;BME280_temperature;BME280_humidity;BME280_pressure;Samples;Min_cycle;Max_cycle;Signal;HPM_P1;HPM_P2
2023/08/28 00:01:59;;;;;;;97.43;93.13;;;;;;;22.49;43.51;101070.84;5050042;28;20044;-74
2023/08/28 00:04:25;;;;;;;97.20;92.80;;;;;;;22.47;43.11;101068.41;5047953;28;20473;-72
2023/08/28 00:06:51;;;;;;;97.43;93.03;;;;;;;22.45;43.69;101062.38;5047097;28;20083;-71
2023/08/28 00:09:17;;;;;;;97.28;92.97;;;;;;;22.44;43.40;101064.31;5034596;28;20099;-72
2023/08/28 00:11:43;;;;;;;96.88;92.32;;;;;;;22.43;43.23;101072.91;5031388;28;20470;-72
2023/08/28 00:14:08;;;;;;;98.45;93.85;;;;;;;22.42;43.20;101072.09;5041146;28;20075;-71
2023/08/28 00:16:33;;;;;;;95.55;91.38;;;;;;;22.40;43.18;101074.38;5039902;28;20169;-72
2023/08/28 00:18:59;;;;;;;94.95;90.53;;;;;;;22.40;43.18;101070.78;5031775;28;20143;-73
2023/08/28 00:21:24;;;;;;;95.03;90.82;;;;;;;22.38;43.10;101067.53;5037763;28;20115;-71
2023/08/28 00:23:49;;;;;;;96.70;92.40;;;;;;;22.37;43.20;101079.66;5028438;28;20037;-73
2023/08/28 00:26:15;;;;;;;93.68;89.38;;;;;;;22.35;43.52;101074.50;5049989;28;20032;-71
2023/08/28 00:28:40;;;;;;;93.13;88.88;;;;;;;22.33;43.45;101062.97;5041704;28;20033;-72
2023/08/28 00:31:06;;;;;;;97.68;93.35;;;;;;;22.33;43.22;101056.66;5045673;28;20049;-71
2023/08/28 00:33:31;;;;;;;95.13;90.75;;;;;;;22.30;43.13;101049.84;5036607;28;20041;-71
2023/08/28 00:35:56;;;;;;;94.53;90.32;;;;;;;22.30;43.49;101058.13;5043375;28;20083;-74
2023/08/28 00:38:22;;;;;;;95.35;91.00;;;;;;;22.28;43.63;101054.84;5047960;28;20064;-73
2023/08/28 00:40:47;;;;;;;95.25;91.00;;;;;;;22.27;43.15;101057.91;5032874;28;20059;-74
2023/08/28 00:43:12;;;;;;;94.82;90.53;;;;;;;22.25;43.58;101050.78;5049035;28;20376;-73
2023/08/28 00:45:41;;;;;;;93.85;89.75;;;;;;;22.25;43.36;101047.19;5034746;28;20128;-72
2023/08/28 00:48:09;;;;;;;95.10;90.90;;;;;;;22.23;43.44;101053.03;5049176;28;20366;-74
2023/08/28 00:50:35;;;;;;;94.03;89.93;;;;;;;22.22;43.68;101065.16;5045745;28;20033;-72
2023/08/28 00:53:01;;;;;;;94.53;90.32;;;;;;;22.20;43.45;101053.66;5040806;28;20045;-73
2023/08/28 00:55:28;;;;;;;95.45;91.15;;;;;;;22.19;43.51;101053.94;5038260;28;20358;-72
2023/08/28 00:57:54;;;;;;;95.20;90.90;;;;;;;22.17;43.79;101056.19;5056771;28;20040;-71
2023/08/28 01:00:19;;;;;;;97.13;92.78;;;;;;;22.15;43.76;101050.19;5045950;28;20037;-74
2023/08/28 01:02:45;;;;;;;95.10;90.82;;;;;;;22.14;43.62;101051.31;5047441;28;20112;-73
2023/08/28 01:05:11;;;;;;;94.43;90.28;;;;;;;22.12;43.42;101054.38;5034731;28;20026;-73
2023/08/28 01:07:46;;;;;;;95.25;91.07;;;;;;;22.10;43.54;101048.41;5052517;28;20040;-74
2023/08/28 01:10:27;;;;;;;98.07;93.63;;;;;;;22.08;43.24;101042.38;5042225;28;20036;-73
2023/08/28 01:13:00;;;;;;;93.13;88.82;;;;;;;22.08;43.67;101041.59;5040584;28;20449;-73
2023/08/28 01:15:27;;;;;;;93.35;89.15;;;;;;;22.06;43.61;101043.81;5044212;28;20053;-71
2023/08/28 01:18:00;;;;;;;93.72;89.63;;;;;;;22.04;43.74;101044.94;5052316;28;20044;-72
2023/08/28 01:20:29;;;;;;;95.30;90.85;;;;;;;22.03;43.66;101053.53;5050964;28;20025;-73
2023/08/28 01:22:57;;;;;;;94.50;90.30;;;;;;;22.02;43.41;101054.63;5047590;28;20029;-73
2023/08/28 01:25:29;;;;;;;94.35;90.05;;;;;;;21.99;43.53;101047.00;5041123;28;20044;-72
2023/08/28 01:27:56;;;;;;;91.90;87.82;;;;;;;21.98;43.75;101050.88;5045709;28;20052;-72
2023/08/28 01:30:22;;;;;;;94.23;90.03;;;;;;;21.96;43.38;101050.38;5041018;28;20115;-73
2023/08/28 01:32:47;;;;;;;93.63;89.40;;;;;;;21.95;43.59;101043.28;5034177;28;20391;-72
2023/08/28 01:35:24;;;;;;;92.35;88.03;;;;;;;21.93;43.75;101027.06;5042269;28;20045;-71
2023/08/28 01:38:19;;;;;;;92.95;88.75;;;;;;;21.90;43.42;101027.69;5057363;28;20420;-72
2023/08/28 01:41:06;;;;;;;92.32;88.22;;;;;;;21.88;43.49;101027.19;5055436;28;20119;-71
2023/08/28 01:43:35;;;;;;;92.53;88.43;;;;;;;21.86;43.62;101021.19;5048477;28;20122;-72
2023/08/28 01:46:01;;;;;;;90.60;86.60;;;;;;;21.86;43.63;101023.13;5048889;28;20174;-72
2023/08/28 01:48:27;;;;;;;92.68;88.50;;;;;;;21.85;43.72;101013.25;5053906;28;20033;-73
2023/08/28 01:50:53;;;;;;;89.70;85.63;;;;;;;21.85;43.29;101018.75;5040433;28;20032;-72
2023/08/28 01:53:18;;;;;;;95.80;91.40;;;;;;;21.83;43.74;101014.38;5049280;28;20040;-73
2023/08/28 01:56:13;;;;;;;91.15;86.95;;;;;;;21.81;43.60;101026.81;5053662;28;20033;-71
2023/08/28 01:59:04;;;;;;;93.93;89.82;;;;;;;21.79;43.89;101026.31;5052180;28;20104;-73
2023/08/28 02:01:29;;;;;;;90.88;86.78;;;;;;;21.77;43.30;101023.03;5047286;28;20037;-73
2023/08/28 02:03:55;;;;;;;91.40;87.22;;;;;;;21.76;43.59;101018.69;5036704;28;20034;-72
2023/08/28 02:06:20;;;;;;;91.80;87.68;;;;;;;21.76;43.49;101024.19;5038385;28;20037;-72
2023/08/28 02:08:46;;;;;;;91.50;87.38;;;;;;;21.74;43.59;101023.69;5049610;28;20037;-72
2023/08/28 02:11:11;;;;;;;89.95;85.80;;;;;;;21.72;43.83;101013.00;5036658;28;20386;-72
2023/08/28 02:13:37;;;;;;;89.18;85.18;;;;;;;21.72;43.37;101001.19;5035981;28;20034;-71
2023/08/28 02:16:03;;;;;;;90.30;86.25;;;;;;;21.70;43.23;101006.19;5032914;28;20036;-74
2023/08/28 02:18:30;;;;;;;91.25;87.07;;;;;;;21.70;43.61;101008.94;5040959;28;20041;-72
2023/08/28 02:20:56;;;;;;;89.20;85.10;;;;;;;21.69;43.34;101018.31;5058332;28;20058;-72
2023/08/28 02:23:22;;;;;;;90.72;86.45;;;;;;;21.67;43.15;101010.38;5050197;28;20365;-72
2023/08/28 02:25:48;;;;;;;89.72;85.72;;;;;;;21.65;43.81;101012.63;5052157;28;20469;-71
2023/08/28 02:28:14;;;;;;;90.55;86.45;;;;;;;21.65;43.43;101009.06;5050999;28;20477;-72
2023/08/28 02:30:40;;;;;;;89.97;85.97;;;;;;;21.64;43.52;101012.91;5046350;28;20541;-72
2023/08/28 02:33:05;;;;;;;91.45;87.45;;;;;;;21.62;43.33;101007.75;5044052;28;20111;-71
2023/08/28 02:35:31;;;;;;;92.25;88.15;;;;;;;21.60;43.44;101008.06;5033294;28;20079;-72
2023/08/28 02:37:57;;;;;;;92.05;87.95;;;;;;;21.58;43.60;101018.53;5042008;28;20033;-72
2023/08/28 02:40:23;;;;;;;89.22;85.15;;;;;;;21.56;43.49;101004.28;5037520;28;20493;-72
2023/08/28 02:42:49;;;;;;;91.35;87.35;;;;;;;21.56;43.81;100997.97;5050438;28;20029;-73
2023/08/28 02:45:15;;;;;;;90.93;86.88;;;;;;;21.55;43.61;100997.19;5049404;28;20123;-73
2023/08/28 02:47:40;;;;;;;89.90;85.95;;;;;;;21.54;43.79;101000.22;5048708;28;20230;-71
2023/08/28 02:50:06;;;;;;;88.68;84.70;;;;;;;21.53;43.64;100998.59;5044818;28;20512;-73
2023/08/28 02:52:32;;;;;;;91.07;86.88;;;;;;;21.51;43.70;100998.09;5050187;28;20493;-73
2023/08/28 02:54:57;;;;;;;92.05;87.95;;;;;;;21.49;43.51;101006.66;5039338;28;20047;-72
2023/08/28 02:57:22;;;;;;;92.15;87.93;;;;;;;21.47;43.73;101008.06;5050011;28;20115;-72
2023/08/28 02:59:48;;;;;;;90.43;86.32;;;;;;;21.46;43.33;101011.97;5043118;28;20029;-71
2023/08/28 03:02:13;;;;;;;89.30;85.10;;;;;;;21.45;43.20;101013.91;5044503;28;20025;-71
2023/08/28 03:04:39;;;;;;;89.25;85.28;;;;;;;21.43;43.92;101016.13;5038540;28;20045;-71
2023/08/28 03:07:04;;;;;;;88.97;85.03;;;;;;;21.42;43.73;101016.44;5050631;28;20036;-73
2023/08/28 03:09:31;;;;;;;90.13;86.03;;;;;;;21.41;43.69;101023.88;5049170;28;20473;-72
2023/08/28 03:11:57;;;;;;;88.70;84.80;;;;;;;21.40;43.42;101027.75;5039825;28;20032;-73
2023/08/28 03:14:22;;;;;;;88.68;84.63;;;;;;;21.38;43.38;101021.72;5032499;28;20056;-74
2023/08/28 03:16:47;;;;;;;88.45;84.47;;;;;;;21.35;43.76;101019.59;5036028;28;20037;-72
2023/08/28 03:19:13;;;;;;;89.88;85.82;;;;;;;21.35;43.91;101031.41;5040605;28;20033;-73
2023/08/28 03:21:40;;;;;;;91.05;87.00;;;;;;;21.34;43.39;101037.19;5049442;28;20462;-71
2023/08/28 03:24:06;;;;;;;86.63;82.63;;;;;;;21.33;43.99;101036.38;5038389;28;20037;-72
2023/08/28 03:26:31;;;;;;;88.72;84.53;;;;;;;21.31;43.46;101035.88;5056956;28;20040;-72
2023/08/28 03:28:56;;;;;;;88.90;84.93;;;;;;;21.30;43.42;101034.25;5031643;28;20128;-73
2023/08/28 03:31:22;;;;;;;89.05;85.15;;;;;;;21.30;43.94;101036.19;5042688;28;20093;-73
2023/08/28 03:33:48;;;;;;;87.95;83.75;;;;;;;21.28;43.89;101028.25;5039672;28;20033;-72
2023/08/28 03:36:13;;;;;;;88.85;84.85;;;;;;;21.28;43.48;101036.50;5048834;28;20048;-72
2023/08/28 03:38:38;;;;;;;89.90;85.80;;;;;;;21.25;43.65;101039.88;5046658;28;20039;-72
2023/08/28 03:41:04;;;;;;;88.88;84.88;;;;;;;21.25;43.51;101036.31;5045706;28;20052;-72
2023/08/28 03:43:29;;;;;;;88.10;84.00;;;;;;;21.25;43.51;101050.84;5044591;28;20033;-72
2023/08/28 03:45:54;;;;;;;87.85;83.95;;;;;;;21.23;43.73;101061.31;5050237;28;20037;-71
2023/08/28 03:48:20;;;;;;;87.00;83.07;;;;;;;21.22;43.51;101056.97;5052906;28;20389;-72
2023/08/28 03:50:46;;;;;;;87.38;83.38;;;;;;;21.21;43.71;101054.50;5047060;28;20041;-73
2023/08/28 03:53:11;;;;;;;86.43;82.50;;;;;;;21.19;43.73;101054.81;5042042;28;20080;-71
2023/08/28 03:55:37;;;;;;;86.93;83.00;;;;;;;21.18;44.08;101054.00;5041045;28;20168;-72
2023/08/28 03:58:03;;;;;;;87.28;83.28;;;;;;;21.17;43.71;101055.13;5064047;28;20037;-72
2023/08/28 04:00:31;;;;;;;91.10;86.68;;;;;;;21.15;43.99;101054.63;5045635;28;20045;-73
2023/08/28 04:02:56;;;;;;;87.45;83.00;;;;;;;21.16;44.14;101058.16;5037184;28;20389;-74
2023/08/28 04:05:22;;;;;;;86.45;82.57;;;;;;;21.13;43.88;101061.53;5043078;28;20041;-72
2023/08/28 04:07:49;;;;;;;86.78;82.75;;;;;;;21.13;44.01;101065.09;5036573;28;20033;-74
2023/08/28 04:10:14;;;;;;;86.60;82.70;;;;;;;21.11;44.02;101064.56;5038098;28;20477;-72
2023/08/28 04:12:40;;;;;;;87.50;83.38;;;;;;;21.10;43.61;101067.66;5038682;28;20029;-72
2023/08/28 04:15:09;;;;;;;85.18;80.97;;;;;;;21.10;44.00;101081.38;5053590;28;20036;-72
2023/08/28 04:17:35;;;;;;;84.80;80.80;;;;;;;21.07;43.66;101082.81;5042661;28;20073;-73
2023/08/28 04:20:14;;;;;;;83.63;79.78;;;;;;;21.06;44.04;101081.16;5041158;28;20052;-73
2023/08/28 04:22:41;;;;;;;86.78;82.78;;;;;;;21.06;44.02;101083.09;5045741;28;20033;-72
2023/08/28 04:25:07;;;;;;;84.47;80.57;;;;;;;21.04;43.73;101086.16;5042805;28;20124;-72
2023/08/28 04:27:33;;;;;;;85.03;80.82;;;;;;;21.04;43.80;101097.16;5036297;28;20140;-73
2023/08/28 04:29:58;;;;;;;84.35;80.45;;;;;;;21.03;43.77;101094.72;5038548;28;20493;-72
2023/08/28 04:32:24;;;;;;;84.80;80.93;;;;;;;21.02;44.29;101093.09;5040054;28;20452;-73
2023/08/28 04:34:49;;;;;;;84.45;80.47;;;;;;;21.02;43.70;101090.34;5047803;28;20040;-73
2023/08/28 04:37:14;;;;;;;85.95;81.75;;;;;;;21.00;44.22;101096.13;5050499;28;20062;-73
2023/08/28 04:39:40;;;;;;;87.70;83.70;;;;;;;20.99;44.13;101091.75;5048512;28;20037;-73
2023/08/28 04:42:05;;;;;;;84.07;80.18;;;;;;;20.99;44.22;101099.16;5035349;28;20140;-73
2023/08/28 04:44:31;;;;;;;85.63;81.35;;;;;;;20.97;43.95;101099.50;5037944;28;20036;-73
2023/08/28 04:46:58;;;;;;;85.72;81.78;;;;;;;20.97;44.12;101096.75;5047430;28;20025;-73
2023/08/28 04:49:24;;;;;;;85.53;81.53;;;;;;;20.96;44.04;101103.34;5044512;28;20041;-73
2023/08/28 04:51:49;;;;;;;82.55;78.70;;;;;;;20.94;43.73;101100.91;5050710;28;20291;-73
2023/08/28 04:54:14;;;;;;;82.40;78.65;;;;;;;20.93;44.21;101095.72;5051245;28;20550;-73
2023/08/28 04:56:40;;;;;;;84.95;80.90;;;;;;;20.92;44.15;101089.41;5037536;28;20037;-73
2023/08/28 04:59:05;;;;;;;83.68;79.50;;;;;;;20.92;44.29;101088.59;5042900;28;20534;-72
2023/08/28 05:01:31;;;;;;;84.07;80.28;;;;;;;20.90;43.89;101075.16;5051009;28;20495;-75
2023/08/28 05:03:57;;;;;;;81.85;78.13;;;;;;;20.90;44.30;101074.34;5042128;28;20156;-72
2023/08/28 05:06:22;;;;;;;85.05;81.15;;;;;;;20.88;43.84;101071.91;5039990;28;20478;-72
2023/08/28 05:08:48;;;;;;;83.32;79.32;;;;;;;20.88;44.04;101079.34;5033644;28;20029;-72
2023/08/28 05:11:13;;;;;;;82.40;78.50;;;;;;;20.87;44.42;101077.72;5048321;28;20048;-73
2023/08/28 05:13:38;;;;;;;82.65;78.75;;;;;;;20.87;44.02;101077.72;5048056;28;20029;-72
2023/08/28 05:16:04;;;;;;;82.88;79.10;;;;;;;20.85;44.00;101072.53;5038723;28;20045;-72
2023/08/28 05:18:29;;;;;;;80.40;76.40;;;;;;;20.85;44.32;101064.28;5034288;28;20033;-73
2023/08/28 05:20:55;;;;;;;80.13;76.32;;;;;;;20.84;44.14;101067.31;5047771;28;20461;-72
2023/08/28 05:23:25;;;;;;;78.65;75.00;;;;;;;20.84;44.01;101067.31;5038869;28;20037;-73
2023/08/28 05:25:52;;;;;;;80.05;76.35;;;;;;;20.83;44.44;101057.47;5043540;28;20097;-73
2023/08/28 05:28:17;;;;;;;78.43;74.82;;;;;;;20.82;44.07;101061.34;5042508;28;20029;-71
2023/08/28 05:30:42;;;;;;;81.20;77.50;;;;;;;20.83;44.00;101057.47;5041966;28;20099;-71
2023/08/28 05:33:08;;;;;;;79.50;75.90;;;;;;;20.81;44.01;101062.44;5048041;28;20441;-72
2023/08/28 05:35:33;;;;;;;78.97;75.28;;;;;;;20.82;44.09;101064.09;5041055;28;20033;-72
2023/08/28 05:37:59;;;;;;;81.35;77.57;;;;;;;20.79;44.56;101065.50;5038770;28;20458;-73
2023/08/28 05:40:24;;;;;;;80.50;76.80;;;;;;;20.78;44.16;101061.13;5042976;28;20037;-71
2023/08/28 05:42:49;;;;;;;79.75;76.05;;;;;;;20.79;44.55;101053.69;5051406;28;20035;-71
2023/08/28 05:45:15;;;;;;;79.28;75.68;;;;;;;20.78;44.66;101055.63;5053424;28;20124;-72
2023/08/28 05:47:41;;;;;;;80.70;76.60;;;;;;;20.78;44.15;101061.13;5049586;28;20029;-72
2023/08/28 05:50:07;;;;;;;77.78;74.05;;;;;;;20.78;44.23;101063.06;5034929;28;20045;-72
2023/08/28 05:52:32;;;;;;;84.75;80.65;;;;;;;20.77;44.21;101061.44;5044046;28;20034;-72
2023/08/28 05:54:58;;;;;;;78.75;75.18;;;;;;;20.75;44.29;101067.22;5038498;28;20037;-73
2023/08/28 05:57:23;;;;;;;78.68;75.07;;;;;;;20.75;44.38;101073.53;5050924;28;20036;-72
2023/08/28 05:59:50;;;;;;;81.50;77.70;;;;;;;20.75;44.18;101076.25;5041430;28;20025;-72
2023/08/28 06:02:15;;;;;;;77.93;74.32;;;;;;;20.74;44.65;101071.09;5036283;28;20031;-73
2023/08/28 06:04:45;;;;;;;79.32;75.70;;;;;;;20.75;44.69;101075.47;5032962;28;20045;-73
2023/08/28 06:07:10;;;;;;;81.10;77.38;;;;;;;20.74;44.32;101060.94;5036366;28;20033;-72
2023/08/28 06:09:36;;;;;;;77.72;74.18;;;;;;;20.73;44.62;101067.50;5046668;28;20427;-72
2023/08/28 06:12:01;;;;;;;78.30;74.60;;;;;;;20.74;44.56;101071.09;5044089;28;20117;-72
2023/08/28 06:14:27;;;;;;;80.55;76.55;;;;;;;20.73;44.43;101062.03;5038137;28;20093;-72
2023/08/28 06:16:53;;;;;;;77.65;73.57;;;;;;;20.73;44.67;101050.22;5047341;28;20037;-72
2023/08/28 06:19:18;;;;;;;77.22;73.60;;;;;;;20.73;44.39;101056.53;5046051;28;20442;-72
2023/08/28 06:21:45;;;;;;;76.28;72.72;;;;;;;20.73;44.70;101056.53;5045237;28;20044;-72
2023/08/28 06:24:14;;;;;;;77.75;74.25;;;;;;;20.73;44.75;101061.22;5035759;28;20033;-72
2023/08/28 06:26:41;;;;;;;74.93;71.53;;;;;;;20.72;44.67;101074.13;5040628;28;20029;-74
2023/08/28 06:29:07;;;;;;;77.40;73.80;;;;;;;20.72;44.75;101071.38;5049051;28;20045;-72
2023/08/28 06:31:32;;;;;;;79.55;75.90;;;;;;;20.72;44.43;101074.13;5033013;28;20486;-73
2023/08/28 06:33:57;;;;;;;80.13;75.72;;;;;;;20.72;44.53;101079.63;5040935;28;20083;-72
2023/08/28 06:36:23;;;;;;;79.00;75.40;;;;;;;20.73;44.37;101077.69;5025648;28;20456;-73
2023/08/28 06:38:51;;;;;;;77.07;73.45;;;;;;;20.73;44.42;101084.00;5041354;28;20110;-71
2023/08/28 06:41:17;;;;;;;;;;;;;;;20.68;44.72;101086.81;5045041;28;20057;-71
2023/08/28 06:43:43;;;;;;;72.72;69.20;;;;;;;20.71;44.66;101085.41;5042854;28;19932;-73
2023/08/28 06:46:08;;;;;;;77.05;73.50;;;;;;;20.70;44.47;101092.03;5048018;28;20033;-72
2023/08/28 06:48:34;;;;;;;75.45;71.95;;;;;;;20.71;44.45;101085.41;5041156;28;20163;-73
2023/08/28 06:50:59;;;;;;;74.47;71.00;;;;;;;20.71;44.66;101082.66;5042574;28;20037;-72
2023/08/28 06:53:25;;;;;;;75.60;72.15;;;;;;;20.71;44.58;101086.25;5046922;28;20404;-72
2023/08/28 06:55:51;;;;;;;77.75;74.05;;;;;;;20.73;45.02;101085.91;5039946;28;20033;-72
2023/08/28 06:58:16;;;;;;;78.10;74.43;;;;;;;20.72;44.49;101090.59;5044174;28;20371;-72
2023/08/28 07:00:42;;;;;;;78.13;74.43;;;;;;;20.73;45.01;101096.91;5042343;28;20025;-72
2023/08/28 07:03:07;;;;;;;76.10;72.60;;;;;;;20.73;44.55;101100.47;5032050;28;20037;-71
2023/08/28 07:05:32;;;;;;;77.28;73.78;;;;;;;20.74;44.65;101107.59;5034802;28;20064;-73
2023/08/28 07:07:58;;;;;;;78.95;75.28;;;;;;;20.75;44.57;101105.66;5041840;28;20461;-72
2023/08/28 07:10:23;;;;;;;79.05;75.25;;;;;;;20.75;44.56;101105.66;5044886;28;20037;-72
2023/08/28 07:12:49;;;;;;;78.47;74.80;;;;;;;20.77;44.47;101113.59;5043818;28;20094;-72
2023/08/28 07:15:17;;;;;;;76.45;72.95;;;;;;;20.77;44.58;101116.34;5044130;28;20048;-71
2023/08/28 07:17:43;;;;;;;78.22;74.53;;;;;;;20.76;44.74;101107.28;5040168;28;20106;-72
2023/08/28 07:20:09;;;;;;;76.97;73.20;;;;;;;20.78;44.81;101109.72;5044343;28;20412;-72
2023/08/28 07:22:34;;;;;;;74.70;71.30;;;;;;;20.77;44.86;101092.44;5038349;28;20072;-75
2023/08/28 07:25:00;;;;;;;76.72;73.10;;;;;;;20.77;44.71;101103.44;5042813;28;20040;-70
2023/08/28 07:27:26;;;;;;;74.57;71.18;;;;;;;20.79;45.05;101095.72;5040803;28;20510;-74
2023/08/28 07:29:51;;;;;;;76.47;72.88;;;;;;;20.80;44.55;101102.00;5041125;28;20048;-72
2023/08/28 07:32:16;;;;;;;76.15;72.63;;;;;;;20.80;45.12;101093.78;5043118;28;20052;-71
2023/08/28 07:34:42;;;;;;;75.93;72.32;;;;;;;20.80;44.79;101097.31;5042186;28;20033;-71
2023/08/28 07:37:07;;;;;;;75.28;71.68;;;;;;;20.81;45.07;101095.38;5043978;28;20583;-72
2023/08/28 07:39:33;;;;;;;76.30;72.70;;;;;;;20.82;44.77;101102.53;5046328;28;20033;-74
2023/08/28 07:41:58;;;;;;;77.55;73.85;;;;;;;20.81;45.05;101101.69;5042782;28;20036;-72
2023/08/28 07:44:23;;;;;;;76.60;73.07;;;;;;;20.83;44.74;101106.88;5042179;28;20037;-73
2023/08/28 07:46:49;;;;;;;76.68;73.05;;;;;;;20.84;45.21;101105.75;5042973;28;20627;-76
2023/08/28 07:49:15;;;;;;;75.57;72.13;;;;;;;20.84;45.08;101109.34;5044060;28;20049;-73
2023/08/28 07:51:40;;;;;;;77.13;73.53;;;;;;;20.85;45.14;101116.44;5043602;28;20029;-74
2023/08/28 07:54:05;;;;;;;80.60;76.90;;;;;;;20.86;45.03;101109.03;5037006;28;20029;-73
2023/08/28 07:56:31;;;;;;;76.65;73.05;;;;;;;20.86;44.81;101118.06;5043234;28;20031;-71
2023/08/28 07:58:56;;;;;;;75.82;72.32;;;;;;;20.86;44.75;101118.06;5044366;28;20025;-73
2023/08/28 08:01:22;;;;;;;75.57;71.97;;;;;;;20.88;45.02;101115.03;5044440;28;20434;-73
2023/08/28 08:03:49;;;;;;;78.45;74.70;;;;;;;20.89;45.22;101125.72;5039532;28;20029;-72
2023/08/28 08:06:15;;;;;;;74.80;71.40;;;;;;;20.90;44.82;101110.06;5043196;28;20040;-72
2023/08/28 08:08:40;;;;;;;76.25;72.65;;;;;;;20.90;45.20;101108.13;5039801;28;20049;-72
2023/08/28 08:11:06;;;;;;;77.50;73.93;;;;;;;20.91;44.86;101109.72;5041776;28;20041;-71
2023/08/28 08:13:31;;;;;;;76.47;72.78;;;;;;;20.93;45.23;101112.19;5039372;28;21515;-73
2023/08/28 08:15:56;;;;;;;76.45;72.75;;;;;;;20.93;44.90;101120.44;5040899;28;20381;-71
2023/08/28 08:18:22;;;;;;;79.55;75.90;;;;;;;20.93;45.34;101112.19;5043565;28;20508;-71
2023/08/28 08:20:47;;;;;;;77.90;74.30;;;;;;;20.94;45.03;101109.16;5042626;28;20596;-72
2023/08/28 08:23:13;;;;;;;75.63;72.22;;;;;;;20.96;45.09;101114.31;5048611;28;20064;-71
2023/08/28 08:25:38;;;;;;;76.55;73.05;;;;;;;20.98;45.40;101111.28;5044852;28;20032;-72
2023/08/28 08:28:04;;;;;;;77.28;73.75;;;;;;;20.99;45.27;101110.16;5045723;28;20481;-74
2023/08/28 08:30:30;;;;;;;76.63;73.03;;;;;;;20.99;45.07;101111.00;5040112;28;20056;-72
2023/08/28 08:32:56;;;;;;;77.30;73.70;;;;;;;21.01;45.39;101105.19;5041848;28;20045;-72
2023/08/28 08:35:21;;;;;;;78.28;74.68;;;;;;;21.01;45.07;101111.47;5041777;28;20044;-72
2023/08/28 08:37:52;;;;;;;78.13;74.47;;;;;;;21.02;45.11;101113.13;5040387;28;20037;-74
2023/08/28 08:40:23;;;;;;;77.28;73.72;;;;;;;21.02;45.11;101110.38;5040448;28;20034;-72
2023/08/28 08:42:48;;;;;;;77.15;73.57;;;;;;;21.05;45.45;101111.69;5045652;28;20029;-72
2023/08/28 08:45:14;;;;;;;76.32;72.82;;;;;;;21.05;45.52;101108.94;5044130;28;20441;-73
2023/08/28 08:47:40;;;;;;;78.40;74.78;;;;;;;21.07;45.39;101109.47;5044576;28;20025;-70
2023/08/28 08:50:08;;;;;;;79.72;76.03;;;;;;;21.08;45.27;101106.41;5042553;28;20040;-77
2023/08/28 08:52:38;;;;;;;76.93;73.35;;;;;;;21.09;45.30;101104.47;5047371;28;20060;-71
2023/08/28 08:55:28;;;;;;;79.68;75.97;;;;;;;21.10;45.37;101106.09;5043011;28;20395;-73
2023/08/28 08:57:55;;;;;;;76.07;72.65;;;;;;;21.11;45.61;101110.47;5041251;28;20397;-71
2023/08/28 09:00:21;;;;;;;76.20;72.70;;;;;;;21.12;45.48;101107.44;5043741;28;20120;-71
2023/08/28 09:02:47;;;;;;;78.85;75.25;;;;;;;21.13;45.65;101106.28;5048048;28;20028;-71
2023/08/28 09:05:15;;;;;;;79.03;75.40;;;;;;;21.14;45.48;101113.44;5049273;28;20041;-71
2023/08/28 09:07:43;;;;;;;78.97;75.07;;;;;;;21.16;45.71;101113.91;5049395;28;20382;-72
2023/08/28 09:10:10;;;;;;;79.50;75.80;;;;;;;21.16;45.66;101110.38;5047320;28;20029;-71
2023/08/28 09:12:35;;;;;;;80.35;76.53;;;;;;;21.18;45.37;101105.38;5050457;28;20591;-71
2023/08/28 09:15:03;;;;;;;80.40;76.68;;;;;;;21.19;45.70;101115.25;5047829;28;20124;-71
2023/08/28 09:17:28;;;;;;;77.28;73.80;;;;;;;21.21;45.92;101110.25;5045813;28;20479;-72
2023/08/28 09:19:54;;;;;;;78.80;75.00;;;;;;;21.22;45.83;101108.31;5045928;28;20036;-70
2023/08/28 09:22:25;;;;;;;79.63;75.95;;;;;;;21.24;45.48;101106.91;5046520;28;20065;-73
2023/08/28 09:24:55;;;;;;;77.40;73.80;;;;;;;21.25;45.87;101108.53;5052430;28;20501;-71
2023/08/28 09:27:20;;;;;;;78.22;74.57;;;;;;;21.26;46.12;101103.84;5046646;28;20112;-73
2023/08/28 09:29:46;;;;;;;81.72;77.97;;;;;;;21.27;46.04;101100.81;5050809;28;20159;-70
2023/08/28 09:32:13;;;;;;;80.63;76.82;;;;;;;21.30;46.03;101104.88;5045612;28;20104;-71
2023/08/28 09:34:40;;;;;;;78.80;75.30;;;;;;;21.30;45.97;101102.13;5050821;28;20041;-70
2023/08/28 09:37:10;;;;;;;84.00;80.10;;;;;;;21.33;45.66;101098.78;5038133;28;20037;-72
2023/08/28 09:39:40;;;;;;;81.20;77.50;;;;;;;21.35;46.09;101102.03;5040783;28;20430;-72
2023/08/28 09:42:05;;;;;;;81.47;77.50;;;;;;;21.36;46.03;101098.97;5047167;28;20048;-72
2023/08/28 09:44:34;;;;;;;81.97;77.97;;;;;;;21.38;46.30;101104.16;5046120;28;20047;-71
2023/08/28 09:47:00;;;;;;;80.03;76.30;;;;;;;21.40;46.36;101104.69;5046369;28;20044;-72
2023/08/28 09:49:26;;;;;;;83.05;79.25;;;;;;;21.42;46.38;101096.97;5050030;28;20399;-71
2023/08/28 09:51:51;;;;;;;83.80;79.93;;;;;;;21.45;46.25;101103.78;5042937;28;20501;-71
2023/08/28 09:54:17;;;;;;;81.97;78.07;;;;;;;21.47;46.49;101104.28;5031478;28;20029;-71
2023/08/28 09:56:44;;;;;;;81.32;77.53;;;;;;;21.51;46.61;101106.09;5048355;28;20029;-72
2023/08/28 09:59:10;;;;;;;84.28;80.35;;;;;;;21.54;46.51;101108.22;5048110;28;20021;-71
2023/08/28 10:01:37;;;;;;;81.40;77.60;;;;;;;21.56;46.56;101116.97;5046617;28;20091;-70
2023/08/28 10:04:07;;;;;;;81.90;78.15;;;;;;;21.59;46.67;101118.31;5047578;28;20033;-72
2023/08/28 10:06:40;;;;;;;85.50;81.50;;;;;;;21.61;46.03;101119.63;5048381;28;20036;-72
2023/08/28 10:09:15;;;;;;;83.10;79.20;;;;;;;21.64;46.08;101115.44;5039510;28;20045;-72
2023/08/28 10:11:42;;;;;;;82.88;79.18;;;;;;;21.67;46.08;101116.75;5047720;28;20506;-71
2023/08/28 10:14:09;;;;;;;85.03;80.95;;;;;;;21.68;46.51;101119.22;5045588;28;20090;-70
2023/08/28 10:16:40;;;;;;;82.93;78.82;;;;;;;21.71;46.52;101120.53;5046021;28;20067;-71
2023/08/28 10:19:19;;;;;;;84.47;80.47;;;;;;;21.71;46.71;101113.09;5042737;28;20621;-71
2023/08/28 10:21:45;;;;;;;82.72;79.03;;;;;;;21.74;46.80;101111.66;5046182;28;20033;-71
2023/08/28 10:24:13;;;;;;;83.50;79.70;;;;;;;21.76;46.68;101109.41;5043003;28;20344;-70
2023/08/28 10:26:40;;;;;;;82.55;78.88;;;;;;;21.77;46.58;101117.38;5045388;28;20033;-71
2023/08/28 10:29:07;;;;;;;85.78;81.80;;;;;;;21.79;46.49;101112.34;5047026;28;20200;-71
2023/08/28 10:31:35;;;;;;;82.72;79.03;;;;;;;21.82;46.41;101113.66;5047883;28;20532;-68
2023/08/28 10:34:01;;;;;;;84.00;80.20;;;;;;;21.85;46.87;101118.56;5046260;28;20049;-70
2023/08/28 10:36:29;;;;;;;83.72;79.97;;;;;;;21.87;46.53;101119.06;5039986;28;20469;-73
2023/08/28 10:38:55;;;;;;;86.35;82.45;;;;;;;21.90;46.79;101123.97;5045082;28;20040;-72
2023/08/28 10:41:22;;;;;;;84.20;80.40;;;;;;;21.93;46.50;101114.28;5044668;28;20454;-70
2023/08/28 10:43:49;;;;;;;83.05;79.25;;;;;;;21.95;46.41;101115.59;5042434;28;20544;-72
2023/08/28 10:46:16;;;;;;;85.63;81.72;;;;;;;21.96;46.35;101117.22;5042559;28;20068;-71
2023/08/28 10:48:44;;;;;;;84.95;81.15;;;;;;;22.01;46.86;101121.78;5043972;28;20412;-71
2023/08/28 10:51:12;;;;;;;84.07;80.28;;;;;;;22.02;46.61;101121.47;5044678;28;20060;-70
2023/08/28 10:53:39;;;;;;;84.78;80.88;;;;;;;22.04;46.55;101116.47;5043825;28;20389;-71
2023/08/28 10:56:06;;;;;;;87.80;83.88;;;;;;;22.06;46.86;101113.41;5039477;28;20035;-72
2023/08/28 10:58:36;;;;;;;87.65;83.68;;;;;;;22.09;46.60;101117.47;5040644;28;20083;-69
2023/08/28 11:01:17;;;;;;;84.88;81.15;;;;;;;22.10;46.45;101110.84;5045113;28;20130;-69
2023/08/28 11:03:57;;;;;;;82.13;78.43;;;;;;;22.11;46.88;101107.78;5043246;28;20404;-71
2023/08/28 11:06:43;;;;;;;86.18;82.18;;;;;;;22.12;46.60;101105.84;5038276;28;20145;-69
2023/08/28 11:09:27;;;;;;;85.68;81.38;;;;;;;22.16;46.49;101117.84;5046228;28;20044;-71